.
WxDataArchive / Data Records for 2006-06-07
2006-06-06 June 2006 2006-06-08

Data Records for Wednesday, 07 June 2006

Time	Temp	Chill	HIndex	Humid	Dewpt	 Wind 	HiWind	WindDir	Rain 	Barom 
-----	----	-----	------	-----	-----	------	------	-------	-----	----- 
00:00	66.1	66.1	66.1	58	50.9	0	0	---	0.00	29.848 
00:05	66.1	66.1	66.1	57	50.4	0	0	---	0.00	29.848 
00:10	66.1	66.1	66.1	57	50.4	0	1	248	0.00	29.848 
00:15	66.1	66.1	66.1	57	50.4	0	0	---	0.00	29.848 
00:20	66.3	66.3	66.3	58	51.1	0	0	---	0.00	29.848 
00:25	66.6	66.6	66.6	58	51.4	0	0	---	0.00	29.848 
00:30	66.9	66.9	66.9	57	51.2	0	0	---	0.00	29.845 
00:35	67.3	67.3	67.3	56	51.1	0	1	248	0.00	29.845 
00:40	67.6	67.6	67.6	55	50.8	0	1	248	0.00	29.845 
00:45	67.9	67.9	67.9	54	50.6	0	1	248	0.00	29.845 
00:50	68.1	68.1	68.1	54	50.8	0	1	248	0.00	29.845 
00:55	68.6	68.6	68.6	55	51.8	0	3	248	0.00	29.845 
01:00	68.3	68.3	68.3	64	55.6	1	2	248	0.01	29.844 
01:05	67.4	67.4	67.4	63	54.4	1	2	248	0.00	29.844 
01:10	67.1	67.1	67.1	67	55.8	0	2	248	0.00	29.844 
01:15	66.8	66.8	66.8	69	56.3	0	0	---	0.00	29.832 
01:20	66.4	66.4	66.4	68	55.5	0	0	---	0.00	29.832 
01:25	66.3	66.3	66.3	71	56.6	0	0	---	0.00	29.832 
01:30	66.1	66.1	66.1	70	56.0	0	0	---	0.00	29.827 
01:35	66.0	66.0	66.0	68	55.1	0	1	248	0.00	29.827 
01:40	66.0	66.0	66.0	70	55.9	0	0	---	0.00	29.827 
01:45	66.0	66.0	66.0	69	55.5	0	0	---	0.00	29.824 
01:50	65.8	65.8	65.8	72	56.5	0	0	---	0.00	29.824 
01:55	65.6	65.6	65.6	71	55.9	0	0	---	0.00	29.824 
02:00	65.6	65.6	65.6	71	55.9	0	0	---	0.00	29.815 
02:05	65.5	65.5	65.5	71	55.8	0	0	---	0.00	29.815 
02:10	65.5	65.5	65.5	70	55.4	0	0	---	0.00	29.815 
02:15	65.5	65.5	65.5	71	55.8	0	0	---	0.00	29.814 
02:20	65.5	65.5	65.5	69	55.1	0	1	248	0.00	29.814 
02:25	65.5	65.5	65.5	69	55.1	0	0	---	0.00	29.814 
02:30	65.5	65.5	65.5	69	55.1	0	1	248	0.00	29.815 
02:35	65.5	65.5	65.5	69	55.1	0	1	248	0.00	29.815 
02:40	65.6	65.6	65.6	66	53.9	0	2	248	0.00	29.815 
02:45	65.6	65.6	65.6	66	53.9	0	1	248	0.00	29.815 
02:50	65.8	65.8	65.8	67	54.5	0	2	248	0.00	29.815 
02:55	66.0	66.0	66.0	66	54.3	0	1	248	0.00	29.815 
03:00	66.0	66.0	66.0	65	53.9	0	1	248	0.00	29.812 
03:05	66.1	66.1	66.1	64	53.6	0	2	248	0.00	29.812 
03:10	66.4	66.4	66.4	63	53.4	0	2	248	0.00	29.812 
03:15	66.6	66.6	66.6	62	53.2	0	2	248	0.00	29.809 
03:20	66.9	66.9	66.9	61	53.0	1	3	248	0.00	29.809 
03:25	67.3	67.3	67.3	60	52.9	1	3	248	0.00	29.809 
03:30	67.4	67.4	67.4	61	53.5	2	3	248	0.00	29.810 
03:35	67.4	67.4	67.4	61	53.5	1	3	248	0.00	29.810 
03:40	67.3	67.3	67.3	61	53.4	1	3	248	0.00	29.810 
03:45	67.3	67.3	67.3	61	53.4	1	2	248	0.00	29.798 
03:50	67.3	67.3	67.3	60	52.9	1	2	248	0.00	29.798 
03:55	67.3	67.3	67.3	60	52.9	1	4	248	0.00	29.798 
04:00	67.3	67.3	67.3	62	53.8	1	3	225	0.00	29.794 
04:05	66.9	66.9	66.9	64	54.3	1	4	248	0.00	29.794 
04:10	66.8	66.8	66.8	64	54.2	0	3	270	0.00	29.794 
04:15	66.4	66.4	66.4	64	53.8	0	2	270	0.00	29.786 
04:20	66.3	66.3	66.3	65	54.2	0	1	270	0.00	29.786 
04:25	66.1	66.1	66.1	65	54.0	0	1	270	0.00	29.786 
04:30	66.0	66.0	66.0	65	53.9	0	1	270	0.00	29.784 
04:35	65.8	65.8	65.8	66	54.1	0	0	---	0.00	29.784 
04:40	65.6	65.6	65.6	67	54.3	0	1	270	0.00	29.784 
04:45	65.3	65.3	65.3	67	54.1	0	0	---	0.00	29.781 
04:50	65.2	65.2	65.2	68	54.4	0	1	270	0.00	29.781 
04:55	65.0	65.0	65.0	67	53.8	0	2	270	0.00	29.781 
05:00	65.0	65.0	65.0	68	54.2	0	2	270	0.00	29.785 
05:05	64.8	64.8	64.8	68	54.0	0	1	270	0.00	29.785 
05:10	64.8	64.8	64.8	68	54.0	0	2	270	0.00	29.785 
05:15	64.7	64.7	64.7	67	53.5	0	1	270	0.00	29.794 
05:20	64.7	64.7	64.7	67	53.5	0	2	270	0.00	29.794 
05:25	64.8	64.8	64.8	67	53.6	0	2	270	0.00	29.794 
05:30	65.2	65.2	65.2	66	53.5	1	2	270	0.00	29.823 
05:35	65.3	65.3	65.3	66	53.6	0	1	270	0.00	29.823 
05:40	65.3	65.3	65.3	66	53.6	0	0	---	0.00	29.823 
05:45	65.3	65.3	65.3	66	53.6	0	0	---	0.00	29.826 
05:50	65.2	65.2	65.2	67	54.0	0	0	---	0.00	29.826 
05:55	65.2	65.2	65.2	68	54.4	0	0	---	0.00	29.826 
06:00	65.0	65.0	65.0	69	54.6	0	1	270	0.00	29.832 
06:05	64.8	64.8	64.8	71	55.2	0	1	270	0.00	29.832 
06:10	64.5	64.5	64.5	75	56.4	0	2	270	0.01	29.832 
06:15	64.0	64.0	64.0	77	56.6	0	1	270	0.00	29.829 
06:20	63.4	63.4	63.4	81	57.5	1	2	270	0.01	29.829 
06:25	62.6	62.6	62.6	84	57.7	1	4	248	0.01	29.829 
06:30	62.1	62.1	62.1	86	57.9	0	1	225	0.02	29.832 
06:35	61.8	61.8	61.8	87	57.9	0	0	---	0.03	29.832 
06:40	61.5	61.5	61.5	89	58.2	0	1	225	0.03	29.832 
06:45	61.3	61.3	61.3	89	58.0	0	0	---	0.01	29.817 
06:50	61.2	61.2	61.2	90	58.2	0	1	225	0.00	29.817 
06:55	61.2	61.2	61.2	91	58.5	0	0	---	0.00	29.817 
07:00	61.0	61.0	61.0	91	58.4	0	0	---	0.00	29.829 
07:05	60.9	60.9	60.9	92	58.6	0	1	225	0.00	29.829 
07:10	60.9	60.9	60.9	92	58.6	0	0	---	0.01	29.829 
07:15	60.9	60.9	60.9	92	58.6	0	0	---	0.00	29.850 
07:20	61.0	61.0	61.0	93	59.0	0	1	225	0.01	29.850 
07:25	61.2	61.2	61.2	93	59.2	0	1	225	0.00	29.850 
07:30	61.0	61.0	61.0	93	59.0	0	0	---	0.01	29.852 
07:35	61.0	61.0	61.0	93	59.0	0	2	225	0.01	29.852 
07:40	61.0	61.0	61.0	93	59.0	0	0	---	0.05	29.852 
07:45	61.0	61.0	61.0	93	59.0	0	0	---	0.09	29.845 
07:50	61.0	61.0	61.0	94	59.3	0	1	180	0.01	29.845 
07:55	61.0	61.0	61.0	94	59.3	1	3	135	0.02	29.845 
08:00	61.0	61.0	61.0	94	59.3	0	1	135	0.00	29.833 
08:05	61.2	61.2	61.2	94	59.5	0	2	135	0.00	29.833 
08:10	61.2	61.2	61.2	94	59.5	0	2	202	0.00	29.833 
08:15	61.3	61.3	61.3	94	59.6	1	4	135	0.00	29.823 
08:20	61.3	61.3	61.3	94	59.6	1	2	112	0.00	29.823 
08:25	61.3	61.3	61.3	94	59.6	0	2	90	0.00	29.823 
08:30	61.5	61.5	61.5	94	59.8	0	1	90	0.00	29.841 
08:35	61.5	61.5	61.5	94	59.8	0	1	90	0.00	29.841 
08:40	61.6	61.6	61.6	94	59.9	1	3	270	0.01	29.841 
08:45	61.6	61.6	61.6	94	59.9	1	2	135	0.01	29.839 
08:50	61.6	61.6	61.6	94	59.9	1	3	90	0.07	29.839 
08:55	61.5	61.5	61.5	94	59.8	1	3	112	0.02	29.839 
09:00	61.5	61.5	61.5	94	59.8	1	2	112	0.00	29.839 
09:05	61.6	61.6	61.6	95	60.2	1	2	112	0.00	29.839 
09:10	61.8	61.8	61.8	95	60.3	1	4	112	0.00	29.839 
09:15	61.8	61.8	61.8	95	60.3	1	4	112	0.00	29.828 
09:20	62.0	62.0	62.0	95	60.5	1	4	112	0.00	29.828 
09:25	62.1	62.1	62.1	95	60.6	2	3	112	0.00	29.828 
09:30	62.1	62.1	62.1	94	60.3	2	5	90	0.00	29.826 
09:35	62.3	62.3	62.3	94	60.5	2	4	90	0.00	29.826 
09:40	62.6	62.6	62.6	94	60.8	2	4	112	0.00	29.826 
09:45	62.9	62.9	62.9	94	61.1	1	5	90	0.00	29.825 
09:50	63.4	63.4	63.4	94	61.6	1	5	90	0.00	29.825 
09:55	63.4	63.4	63.4	92	61.0	2	6	112	0.00	29.825 
10:00	63.7	63.7	63.7	92	61.3	2	4	90	0.00	29.815 
10:05	63.9	63.9	63.9	91	61.2	2	5	90	0.00	29.815 
10:10	64.3	64.3	64.3	91	61.6	1	4	68	0.00	29.815 
10:15	64.8	64.8	64.8	91	62.1	1	3	270	0.00	29.817 
10:20	65.0	65.0	65.0	90	62.0	1	4	225	0.00	29.817 
10:25	65.6	65.6	65.6	90	62.6	1	3	248	0.00	29.817 
10:30	66.4	66.4	66.4	87	62.4	2	5	270	0.00	29.812 
10:35	67.3	67.3	67.3	85	62.6	1	4	270	0.00	29.812 
10:40	67.9	67.9	67.9	82	62.2	2	6	248	0.00	29.812 
10:45	68.4	68.4	68.4	82	62.7	2	5	248	0.00	29.806 
10:50	69.1	69.1	69.1	80	62.7	2	6	270	0.00	29.806 
10:55	69.4	69.4	69.4	81	63.3	2	5	248	0.00	29.806 
11:00	69.6	69.6	69.6	77	62.1	2	7	248	0.00	29.805 
11:05	69.4	69.4	69.4	75	61.1	2	6	270	0.00	29.805 
11:10	69.3	69.3	69.3	77	61.8	2	5	248	0.00	29.805 
11:15	69.9	69.9	69.9	77	62.3	2	5	248	0.00	29.801 
11:20	70.3	70.3	70.3	74	61.6	2	5	248	0.00	29.801 
11:25	71.1	71.1	71.1	77	63.5	1	4	90	0.00	29.801 
11:30	71.8	71.8	71.8	73	62.7	2	5	270	0.00	29.794 
11:35	72.3	72.3	72.3	73	63.1	2	5	270	0.00	29.794 
11:40	72.3	72.3	72.3	69	61.5	2	5	248	0.00	29.794 
11:45	72.1	72.1	72.1	69	61.4	3	7	248	0.00	29.794 
11:50	72.0	72.0	72.0	69	61.3	3	9	248	0.00	29.794 
11:55	72.1	72.1	72.1	71	62.2	2	5	270	0.00	29.794 
12:00	72.3	72.3	72.3	69	61.5	3	6	248	0.00	29.791 
12:05	73.0	73.0	73.0	67	61.4	2	7	248	0.00	29.791 
12:10	73.0	73.0	73.0	69	62.2	2	5	248	0.00	29.791 
12:15	73.0	73.0	73.0	67	61.4	3	6	248	0.00	29.793 
12:20	73.0	73.0	73.0	67	61.4	2	4	270	0.00	29.793 
12:25	73.5	73.5	73.5	68	62.3	2	7	248	0.00	29.793 
12:30	74.0	74.0	74.0	69	63.2	1	4	248	0.00	29.791 
12:35	74.6	74.6	74.6	65	62.0	2	5	248	0.00	29.791 
12:40	74.7	74.7	74.7	65	62.1	2	4	270	0.00	29.791 
12:45	74.9	74.9	74.9	63	61.4	2	4	270	0.00	29.788 
12:50	74.6	74.6	74.6	66	62.5	2	4	270	0.00	29.788 
12:55	74.7	74.7	74.7	65	62.1	2	5	270	0.00	29.788 
13:00	74.9	74.9	74.9	67	63.2	2	3	292	0.00	29.787 
13:05	74.9	74.9	74.9	65	62.3	2	4	270	0.00	29.787 
13:10	75.1	75.1	77.1	66	62.9	2	4	248	0.00	29.787 
13:15	74.9	74.9	74.9	65	62.3	2	3	315	0.00	29.788 
13:20	74.4	74.4	74.4	66	62.3	2	3	315	0.00	29.788 
13:25	74.2	74.2	74.2	67	62.5	2	4	248	0.00	29.788 
13:30	74.2	74.2	74.2	67	62.5	2	5	248	0.00	29.788 
13:35	74.2	74.2	74.2	69	63.4	1	3	315	0.00	29.788 
13:40	74.2	74.2	74.2	69	63.4	2	4	315	0.00	29.788 
13:45	74.4	74.4	74.4	68	63.1	2	4	248	0.00	29.788 
13:50	74.0	74.0	74.0	70	63.6	2	3	248	0.00	29.788 
13:55	73.9	73.9	73.9	71	63.9	2	3	315	0.00	29.788 
14:00	74.2	74.2	74.2	69	63.4	1	2	292	0.00	29.786 
14:05	75.1	75.1	76.9	69	64.2	1	3	292	0.00	29.786 
14:10	75.6	75.6	77.4	68	64.3	2	4	292	0.00	29.786 
14:15	75.4	75.4	77.3	67	63.7	1	3	248	0.00	29.781 
14:20	75.3	75.3	77.2	67	63.6	1	3	248	0.00	29.781 
14:25	76.0	76.0	77.8	67	64.2	2	4	292	0.00	29.781 
14:30	76.5	76.5	78.3	65	63.8	1	3	315	0.00	29.770 
14:35	76.1	76.1	78.0	64	63.0	1	4	315	0.00	29.770 
14:40	76.1	76.1	78.0	64	63.0	1	4	270	0.00	29.770 
14:45	76.7	76.7	78.5	64	63.6	1	4	315	0.00	29.765 
14:50	77.7	77.7	79.4	60	62.7	2	5	315	0.00	29.765 
14:55	78.5	78.5	79.9	55	61.0	2	5	270	0.00	29.765 
15:00	78.3	78.3	79.9	58	62.3	3	5	270	0.00	29.756 
15:05	78.1	78.1	79.7	59	62.6	1	4	292	0.00	29.756 
15:10	78.8	78.8	80.2	56	61.8	2	5	270	0.00	29.756 
15:15	78.8	78.8	80.2	56	61.8	2	6	270	0.00	29.751 
15:20	77.7	77.7	79.3	58	61.7	2	5	0	0.00	29.751 
15:25	77.2	77.2	78.9	58	61.3	1	3	338	0.00	29.751 
15:30	76.3	76.3	78.2	60	61.4	1	4	22	0.00	29.755 
15:35	75.8	75.8	77.8	62	61.8	1	3	292	0.00	29.755 
15:40	75.4	75.4	77.5	63	61.9	1	3	292	0.00	29.755 
15:45	74.7	74.7	74.7	64	61.7	1	3	338	0.00	29.756 
15:50	74.2	74.2	74.2	69	63.4	1	3	315	0.00	29.756 
15:55	73.9	73.9	73.9	69	63.1	1	3	338	0.00	29.756 
16:00	73.7	73.7	73.7	71	63.7	1	3	22	0.00	29.757 
16:05	73.7	73.7	73.7	69	62.9	0	3	22	0.00	29.757 
16:10	74.0	74.0	74.0	69	63.2	0	2	0	0.00	29.757 
16:15	74.2	74.2	74.2	68	62.9	0	1	0	0.00	29.754 
16:20	74.4	74.4	74.4	69	63.5	0	2	0	0.00	29.754 
16:25	74.2	74.2	74.2	69	63.4	0	3	0	0.00	29.754 
16:30	74.2	74.2	74.2	69	63.4	0	3	22	0.00	29.755 
16:35	74.6	74.6	74.6	70	64.2	0	2	315	0.00	29.755 
16:40	75.4	75.4	77.1	69	64.5	1	5	22	0.00	29.755 
16:45	75.8	75.8	77.6	67	64.0	0	2	22	0.00	29.753 
16:50	76.0	76.0	77.7	69	65.1	0	3	22	0.00	29.753 
16:55	76.7	76.7	78.5	68	65.3	1	4	68	0.00	29.753 
17:00	77.7	77.7	79.6	66	65.4	2	5	112	0.00	29.753 
17:05	77.7	77.7	79.5	65	65.0	1	4	112	0.00	29.753 
17:10	76.5	76.5	78.3	65	63.8	1	4	22	0.00	29.753 
17:15	75.4	75.4	77.2	68	64.1	1	4	45	0.00	29.752 
17:20	75.1	75.1	76.9	68	63.8	0	2	90	0.00	29.752 
17:25	74.6	74.6	74.6	65	62.0	0	2	315	0.00	29.752 
17:30	74.6	74.6	74.6	68	63.3	0	3	90	0.00	29.756 
17:35	75.1	75.1	76.9	68	63.8	0	3	90	0.00	29.756 
17:40	76.1	76.1	77.9	66	63.9	1	6	90	0.00	29.756 
17:45	76.5	76.5	78.3	64	63.4	1	2	338	0.00	29.752 
17:50	76.1	76.1	78.1	61	61.7	1	4	315	0.00	29.752 
17:55	75.3	75.3	77.4	63	61.8	0	4	270	0.00	29.752 
18:00	75.6	75.6	77.7	62	61.6	1	2	270	0.00	29.754 
18:05	75.8	75.8	77.9	58	59.9	3	7	270	0.00	29.754 
18:10	75.4	75.4	77.6	60	60.5	1	4	315	0.00	29.754 
18:15	74.9	74.9	74.9	63	61.4	1	4	315	0.00	29.760 
18:20	74.4	74.4	74.4	62	60.5	1	4	315	0.00	29.760 
18:25	75.3	75.3	77.5	60	60.4	1	3	45	0.00	29.760 
18:30	75.8	75.8	77.9	59	60.4	2	9	292	0.00	29.762 
18:35	75.8	75.8	77.9	57	59.5	3	7	292	0.00	29.762 
18:40	75.8	75.8	77.9	58	59.9	1	3	315	0.00	29.762 
18:45	75.4	75.4	77.7	56	58.6	2	7	292	0.00	29.763 
18:50	75.3	75.3	77.6	57	59.0	2	4	338	0.00	29.763 
18:55	75.4	75.4	77.6	59	60.1	1	3	270	0.00	29.763 
19:00	75.3	75.3	77.6	58	59.5	1	5	22	0.00	29.773 
19:05	75.1	75.1	77.4	60	60.2	1	3	338	0.00	29.773 
19:10	74.9	74.9	74.9	65	62.3	1	5	68	0.00	29.773 
19:15	74.2	74.2	74.2	66	62.1	1	5	45	0.00	29.776 
19:20	74.0	74.0	74.0	68	62.8	1	3	90	0.00	29.776 
19:25	73.5	73.5	73.5	67	61.9	1	4	135	0.00	29.776 
19:30	72.8	72.8	72.8	69	62.0	0	3	135	0.00	29.779 
19:35	72.5	72.5	72.5	70	62.1	1	3	135	0.00	29.779 
19:40	72.1	72.1	72.1	71	62.2	1	4	68	0.00	29.779 
19:45	71.8	71.8	71.8	72	62.3	1	4	112	0.00	29.788 
19:50	71.6	71.6	71.6	71	61.7	1	3	112	0.00	29.788 
19:55	71.5	71.5	71.5	73	62.4	1	4	45	0.00	29.788 
20:00	71.3	71.3	71.3	71	61.4	2	6	112	0.00	29.791 
20:05	71.3	71.3	71.3	73	62.2	1	4	90	0.00	29.791 
20:10	71.3	71.3	71.3	72	61.8	1	3	90	0.00	29.791 
20:15	71.1	71.1	71.1	73	62.0	1	3	90	0.00	29.793 
20:20	71.1	71.1	71.1	73	62.0	1	3	90	0.00	29.793 
20:25	71.1	71.1	71.1	75	62.8	1	3	90	0.00	29.793 
20:30	70.8	70.8	70.8	76	62.8	1	3	90	0.00	29.792 
20:35	70.6	70.6	70.6	76	62.7	0	3	90	0.00	29.792 
20:40	70.3	70.3	70.3	77	62.7	0	1	90	0.00	29.792 
20:45	70.1	70.1	70.1	77	62.5	0	1	90	0.00	29.797 
20:50	69.9	69.9	69.9	77	62.3	0	1	90	0.00	29.797 
20:55	69.8	69.8	69.8	77	62.3	0	0	---	0.00	29.797 
21:00	69.6	69.6	69.6	77	62.1	0	0	---	0.00	29.803 
21:05	69.6	69.6	69.6	78	62.4	0	1	90	0.00	29.803 
21:10	69.6	69.6	69.6	78	62.4	0	0	---	0.00	29.803 
21:15	69.4	69.4	69.4	78	62.2	0	0	---	0.00	29.802 
21:20	69.1	69.1	69.1	79	62.3	0	0	---	0.00	29.802 
21:25	68.9	68.9	68.9	80	62.5	0	0	---	0.00	29.802 
21:30	68.8	68.8	68.8	80	62.4	0	0	---	0.00	29.809 
21:35	68.6	68.6	68.6	81	62.5	0	0	---	0.00	29.809 
21:40	68.3	68.3	68.3	81	62.2	0	0	---	0.00	29.809 
21:45	68.1	68.1	68.1	81	62.0	0	0	---	0.00	29.810 
21:50	67.8	67.8	67.8	81	61.7	0	0	---	0.00	29.810 
21:55	67.6	67.6	67.6	81	61.6	0	0	---	0.00	29.810 
22:00	67.4	67.4	67.4	81	61.4	0	0	---	0.00	29.817 
22:05	67.3	67.3	67.3	81	61.3	0	0	---	0.00	29.817 
22:10	67.1	67.1	67.1	80	60.7	0	0	---	0.00	29.817 
22:15	67.1	67.1	67.1	78	60.0	0	0	---	0.00	29.816 
22:20	67.1	67.1	67.1	77	59.6	0	0	---	0.00	29.816 
22:25	67.1	67.1	67.1	77	59.6	0	0	---	0.00	29.816 
22:30	67.1	67.1	67.1	77	59.6	0	0	---	0.00	29.821 
22:35	67.1	67.1	67.1	77	59.6	0	0	---	0.00	29.821 
22:40	67.1	67.1	67.1	77	59.6	0	0	---	0.00	29.821 
22:45	67.1	67.1	67.1	77	59.6	0	0	---	0.00	29.822 
22:50	67.1	67.1	67.1	77	59.6	0	0	---	0.00	29.822 
22:55	67.1	67.1	67.1	76	59.3	0	0	---	0.00	29.822 
23:00	67.3	67.3	67.3	76	59.5	0	0	---	0.00	29.820 
23:05	67.3	67.3	67.3	76	59.5	0	0	---	0.00	29.820 
23:10	67.3	67.3	67.3	76	59.5	0	0	---	0.00	29.820 
23:15	67.4	67.4	67.4	75	59.2	0	1	90	0.00	29.819 
23:20	67.6	67.6	67.6	75	59.4	0	2	68	0.00	29.819 
23:25	67.6	67.6	67.6	75	59.4	0	1	68	0.00	29.819 
23:30	67.6	67.6	67.6	74	59.0	0	1	68	0.00	29.818 
23:35	67.4	67.4	67.4	75	59.2	0	0	---	0.00	29.818 
23:40	67.3	67.3	67.3	74	58.7	0	0	---	0.00	29.818 
23:45	67.3	67.3	67.3	75	59.1	0	0	---	0.00	29.821 
23:50	67.3	67.3	67.3	75	59.1	0	0	---	0.00	29.821 
23:55	67.3	67.3	67.3	75	59.1	0	1	45	0.00	29.821 

CoCoRaHS
IN-AL-39
A2 Web Hosting
Creative Commons License
GoDaddy
Look for:

loaded 2017-12-13 02:28:12 • last modified 2010-11-18 10:43:29
Privacy PolicyDisclaimer
• wx.awcolley.com is powered by PmWiki v.2002016 •
• all content (unless otherwise noted) © 2017 A W Colley